Time;durP1;ratioP1;P1;durP2;ratioP2;P2;SDS_P1;SDS_P2;PMS_P1;PMS_P2;Temp;Humidity;BMP_temperature;BMP_pressure;BME280_temperature;BME280_humidity;BME280_pressure;Samples;Min_cycle;Max_cycle;Signal;HPM_P1;HPM_P2
2021/09/09 00:02:18;;;;;;;15.15;11.65;;;;;;;18.72;100.00;96129.53;5084630;28;20067;-50
2021/09/09 00:04:46;;;;;;;15.88;12.30;;;;;;;18.78;100.00;96125.22;5081551;28;20478;-51
2021/09/09 00:07:15;;;;;;;15.80;11.80;;;;;;;19.03;100.00;96128.94;5081641;28;20091;-54
2021/09/09 00:09:44;;;;;;;14.52;11.48;;;;;;;19.05;100.00;96134.06;5094354;28;20075;-55
2021/09/09 00:12:13;;;;;;;15.18;11.30;;;;;;;18.86;100.00;96138.41;5083154;28;20552;-54
2021/09/09 00:14:41;;;;;;;14.70;11.55;;;;;;;19.10;100.00;96128.94;5084807;28;20082;-50
2021/09/09 00:17:09;;;;;;;15.70;11.93;;;;;;;19.10;100.00;96132.44;5079785;28;20048;-51
2021/09/09 00:19:38;;;;;;;16.70;12.25;;;;;;;19.12;100.00;96134.88;5094410;28;20099;-55
2021/09/09 00:22:06;;;;;;;17.58;13.48;;;;;;;18.89;100.00;96132.63;5082126;28;20310;-50
2021/09/09 00:24:35;;;;;;;19.75;13.55;;;;;;;18.93;100.00;96133.88;5079857;28;20067;-51
2021/09/09 00:27:05;;;;;;;21.13;13.93;;;;;;;18.71;100.00;96131.38;5085512;28;20075;-49
2021/09/09 00:29:34;;;;;;;21.13;13.27;;;;;;;18.92;100.00;96130.34;5087495;28;20087;-51
2021/09/09 00:32:02;;;;;;;19.52;13.95;;;;;;;18.87;100.00;96135.50;5082070;28;20067;-54
2021/09/09 00:34:30;;;;;;;19.60;14.27;;;;;;;18.71;100.00;96127.84;5091487;28;20080;-56
2021/09/09 00:36:59;;;;;;;19.17;13.70;;;;;;;18.56;100.00;96137.91;5098279;28;20079;-55
2021/09/09 00:39:27;;;;;;;18.98;13.82;;;;;;;18.86;100.00;96138.41;5078576;28;20607;-56
2021/09/09 00:41:55;;;;;;;20.13;13.75;;;;;;;18.56;100.00;96138.72;5080817;28;20071;-55
2021/09/09 00:44:29;;;;;;;16.23;12.82;;;;;;;18.78;100.00;96142.06;5082675;28;20063;-55
2021/09/09 00:47:02;;;;;;;19.35;13.13;;;;;;;18.88;100.00;96133.66;5082170;28;20064;-51
2021/09/09 00:49:31;;;;;;;15.45;12.50;;;;;;;18.80;100.00;96128.53;5077168;28;20084;-55
2021/09/09 00:52:00;;;;;;;15.55;11.95;;;;;;;18.80;100.00;96129.34;5087526;28;20081;-55
2021/09/09 00:54:28;;;;;;;15.23;12.27;;;;;;;18.88;100.00;96125.63;5089411;28;20066;-48
2021/09/09 00:56:57;;;;;;;19.35;13.70;;;;;;;18.56;100.00;96125.38;5075535;28;20067;-53
2021/09/09 00:59:28;;;;;;;16.42;12.32;;;;;;;18.79;100.00;96122.34;5077772;28;20068;-56
2021/09/09 01:01:56;;;;;;;22.77;14.55;;;;;;;18.56;100.00;96129.88;5086715;28;20066;-53
2021/09/09 01:04:25;;;;;;;22.45;15.00;;;;;;;18.66;100.00;96131.13;5083388;28;20079;-55
2021/09/09 01:06:53;;;;;;;18.60;14.20;;;;;;;18.80;100.00;96129.34;5079585;28;20071;-54
2021/09/09 01:09:22;;;;;;;21.20;15.25;;;;;;;18.67;100.00;96129.28;5088433;28;20146;-55
2021/09/09 01:11:50;;;;;;;17.27;13.00;;;;;;;18.77;100.00;96127.06;5089036;28;20593;-57
2021/09/09 01:14:19;;;;;;;15.98;11.68;;;;;;;18.46;100.00;96132.94;5084543;28;20079;-48
2021/09/09 01:16:49;;;;;;;15.02;11.98;;;;;;;18.51;100.00;96130.47;5084055;28;20063;-50
2021/09/09 01:19:18;;;;;;;14.43;11.27;;;;;;;18.73;100.00;96129.31;5088887;28;20525;-54
2021/09/09 01:21:47;;;;;;;15.18;12.02;;;;;;;18.73;100.00;96129.31;5087355;28;21361;-54
2021/09/09 01:24:17;;;;;;;21.67;12.43;;;;;;;18.55;100.00;96129.06;5080065;28;20064;-51
2021/09/09 01:26:49;;;;;;;;;;;;;;;18.70;100.00;96128.88;5085299;28;20060;-53
2021/09/09 01:29:18;;;;;;;15.27;11.57;;;;;;;18.63;100.00;96134.22;5084396;28;19951;-55
2021/09/09 01:31:46;;;;;;;17.17;12.52;;;;;;;18.58;100.00;96130.50;5077949;28;20067;-57
2021/09/09 01:34:15;;;;;;;19.85;13.30;;;;;;;18.43;100.00;96131.50;5080894;28;20082;-52
2021/09/09 01:36:43;;;;;;;18.50;13.07;;;;;;;18.54;100.00;96135.41;5076815;28;20068;-49
2021/09/09 01:39:11;;;;;;;17.15;12.70;;;;;;;18.24;100.00;96141.09;5086080;28;20071;-55
2021/09/09 01:41:41;;;;;;;18.02;13.55;;;;;;;18.55;100.00;96130.91;5078829;28;20103;-51
2021/09/09 01:44:10;;;;;;;17.50;14.10;;;;;;;18.59;100.00;96138.31;5085926;28;20067;-56
2021/09/09 01:46:38;;;;;;;18.05;12.30;;;;;;;18.70;100.00;96135.03;5091166;28;20084;-56
2021/09/09 01:49:07;;;;;;;18.48;12.52;;;;;;;18.76;100.00;96132.63;5083670;28;20079;-52
2021/09/09 01:51:35;;;;;;;19.73;13.23;;;;;;;18.54;100.00;96138.09;5081415;28;20496;-51
2021/09/09 01:54:04;;;;;;;15.85;13.15;;;;;;;18.60;100.00;96137.28;5094451;28;20066;-51
2021/09/09 01:56:32;;;;;;;17.10;12.50;;;;;;;18.69;100.00;96136.06;5088092;28;20070;-54
2021/09/09 01:59:02;;;;;;;15.88;12.50;;;;;;;18.34;100.00;96138.06;5085435;28;20079;-56
2021/09/09 02:01:30;;;;;;;19.17;12.37;;;;;;;18.47;100.00;96139.91;5085691;28;20072;-55
2021/09/09 02:03:59;;;;;;;21.50;13.32;;;;;;;18.55;100.00;96142.44;5086986;28;20485;-56
2021/09/09 02:06:27;;;;;;;19.73;13.40;;;;;;;18.46;100.00;96139.09;5078952;28;20064;-54
2021/09/09 02:08:56;;;;;;;19.73;13.95;;;;;;;18.32;100.00;96140.09;5082264;28;20068;-53
2021/09/09 02:11:25;;;;;;;18.75;13.02;;;;;;;17.81;100.00;96142.34;5102445;28;20071;-52
2021/09/09 02:13:53;;;;;;;16.83;13.35;;;;;;;17.87;100.00;96141.56;5088349;28;20086;-50
2021/09/09 02:16:23;;;;;;;19.25;13.98;;;;;;;17.97;100.00;96147.38;5085360;28;20075;-48
2021/09/09 02:18:52;;;;;;;15.80;13.40;;;;;;;17.38;100.00;96143.31;5097151;28;20091;-51
2021/09/09 02:21:21;;;;;;;17.73;14.18;;;;;;;17.83;100.00;96140.31;5088443;28;20083;-53
2021/09/09 02:23:49;;;;;;;17.35;13.90;;;;;;;18.07;100.00;96137.16;5080744;28;20059;-53
2021/09/09 02:26:17;;;;;;;15.52;13.57;;;;;;;18.33;100.00;96132.91;5091432;28;20075;-49
2021/09/09 02:28:46;;;;;;;16.02;13.82;;;;;;;18.40;100.00;96139.09;5095142;28;20078;-53
2021/09/09 02:31:14;;;;;;;18.13;14.18;;;;;;;18.38;100.00;96139.31;5085077;28;20489;-55
2021/09/09 02:33:44;;;;;;;16.38;13.65;;;;;;;18.12;100.00;96141.88;5079087;28;20597;-50
2021/09/09 02:36:12;;;;;;;17.80;14.00;;;;;;;18.14;100.00;96143.34;5078612;28;20067;-52
2021/09/09 02:38:41;;;;;;;17.25;13.27;;;;;;;18.45;100.00;96142.81;5097077;28;20067;-53
2021/09/09 02:41:09;;;;;;;19.15;13.70;;;;;;;18.39;100.00;96138.28;5077883;28;20076;-53
2021/09/09 02:43:37;;;;;;;16.38;13.25;;;;;;;18.47;100.00;96146.09;5081892;28;20072;-51
2021/09/09 02:46:06;;;;;;;20.02;13.43;;;;;;;18.40;100.00;96139.09;5091803;28;20079;-55
2021/09/09 02:48:34;;;;;;;17.52;13.30;;;;;;;18.24;100.00;96137.63;5088224;28;20066;-51
2021/09/09 02:51:04;;;;;;;14.88;12.32;;;;;;;18.30;100.00;96135.97;5083144;28;20611;-51
2021/09/09 02:53:32;;;;;;;13.47;11.67;;;;;;;18.10;100.00;96134.09;5087309;28;20059;-49
2021/09/09 02:56:00;;;;;;;18.17;12.38;;;;;;;18.21;100.00;96136.16;5082826;28;20478;-54
2021/09/09 02:58:29;;;;;;;17.88;12.77;;;;;;;18.17;100.00;96142.09;5078805;28;20122;-54
2021/09/09 03:00:57;;;;;;;20.75;13.10;;;;;;;17.90;100.00;96138.50;5096784;28;20088;-52
2021/09/09 03:03:26;;;;;;;21.45;12.88;;;;;;;18.23;100.00;96135.97;5077541;28;20071;-55
2021/09/09 03:05:55;;;;;;;15.48;11.20;;;;;;;18.16;100.00;96140.44;5082824;28;20525;-55
2021/09/09 03:08:24;;;;;;;17.60;11.95;;;;;;;18.24;100.00;96143.78;5087683;28;20052;-56
2021/09/09 03:10:53;;;;;;;18.83;12.32;;;;;;;18.13;100.00;96136.31;5084971;28;20533;-50
2021/09/09 03:13:21;;;;;;;18.92;11.77;;;;;;;18.02;100.00;96143.06;5088395;28;20505;-56
2021/09/09 03:15:50;;;;;;;15.63;12.23;;;;;;;18.06;100.00;96143.47;5070156;28;20454;-55
2021/09/09 03:18:18;;;;;;;15.82;12.43;;;;;;;17.91;100.00;96140.97;5085498;28;20064;-52
2021/09/09 03:20:47;;;;;;;18.63;12.75;;;;;;;17.67;100.00;96134.25;5085629;28;20361;-57
2021/09/09 03:23:15;;;;;;;22.95;12.75;;;;;;;17.21;100.00;96132.13;5080113;28;20055;-57
2021/09/09 03:25:45;;;;;;;19.08;13.23;;;;;;;17.75;100.00;96128.75;5088202;28;20067;-52
2021/09/09 03:28:13;;;;;;;19.63;12.50;;;;;;;17.89;100.00;96131.50;5092209;28;20435;-51
2021/09/09 03:30:42;;;;;;;19.35;12.25;;;;;;;17.86;100.00;96126.56;5084137;28;20142;-53
2021/09/09 03:33:10;;;;;;;18.48;13.25;;;;;;;17.68;100.00;96119.88;5077438;28;20075;-54
2021/09/09 03:35:38;;;;;;;18.73;13.48;;;;;;;17.63;100.00;96121.53;5093231;28;20064;-54
2021/09/09 03:38:09;;;;;;;19.40;12.93;;;;;;;17.21;100.00;96118.81;5084716;28;20059;-57
2021/09/09 03:40:40;;;;;;;18.08;12.77;;;;;;;17.62;100.00;96112.69;5080786;28;20172;-51
2021/09/09 03:43:10;;;;;;;17.58;12.90;;;;;;;17.58;100.00;96115.94;5092644;28;20075;-57
2021/09/09 03:45:38;;;;;;;17.50;12.93;;;;;;;17.78;100.00;96114.22;5091115;28;20063;-52
2021/09/09 03:48:06;;;;;;;18.52;12.73;;;;;;;17.84;100.00;96116.09;5080703;28;20075;-52
2021/09/09 03:50:35;;;;;;;15.77;12.05;;;;;;;17.81;100.00;96113.84;5077973;28;20143;-54
2021/09/09 03:53:03;;;;;;;24.77;13.57;;;;;;;17.68;100.00;96105.72;5082011;28;20064;-53
2021/09/09 03:55:32;;;;;;;16.52;12.90;;;;;;;17.90;100.00;96111.84;5087212;28;20481;-56
2021/09/09 03:58:00;;;;;;;16.92;12.65;;;;;;;17.67;100.00;96107.59;5079414;28;20087;-54
2021/09/09 04:00:30;;;;;;;17.30;12.02;;;;;;;17.76;100.00;96113.63;5085888;28;20110;-51
2021/09/09 04:02:59;;;;;;;21.10;12.20;;;;;;;17.53;100.00;96114.69;5095607;28;20493;-51
2021/09/09 04:05:28;;;;;;;19.77;12.77;;;;;;;17.53;100.00;96120.03;5073387;28;20082;-55
2021/09/09 04:07:56;;;;;;;17.60;12.20;;;;;;;17.51;100.00;96127.38;5082154;28;20466;-54
2021/09/09 04:10:25;;;;;;;16.92;12.20;;;;;;;17.31;100.00;96134.47;5082096;28;20084;-55
2021/09/09 04:12:53;;;;;;;16.33;11.23;;;;;;;17.37;100.00;96130.16;5095036;28;20212;-56
2021/09/09 04:15:22;;;;;;;16.67;10.95;;;;;;;17.04;100.00;96128.91;5075257;28;20064;-52
2021/09/09 04:17:51;;;;;;;17.40;12.20;;;;;;;16.88;100.00;96126.53;5088148;28;20072;-53
2021/09/09 04:20:20;;;;;;;17.35;12.10;;;;;;;17.29;100.00;96128.47;5088842;28;20076;-51
2021/09/09 04:22:48;;;;;;;15.73;11.27;;;;;;;16.86;100.00;96125.88;5084211;28;20067;-51
2021/09/09 04:25:17;;;;;;;15.15;11.50;;;;;;;16.89;100.00;96124.69;5078584;28;20067;-49
2021/09/09 04:27:45;;;;;;;16.92;11.63;;;;;;;17.25;100.00;96124.56;5096527;28;20075;-53
2021/09/09 04:30:14;;;;;;;14.75;11.38;;;;;;;16.78;100.00;96123.38;5091577;28;20052;-53
2021/09/09 04:32:42;;;;;;;19.95;13.00;;;;;;;16.97;100.00;96125.38;5073047;28;20056;-52
2021/09/09 04:35:13;;;;;;;19.85;13.40;;;;;;;17.09;100.00;96126.47;5089580;28;20080;-56
2021/09/09 04:37:41;;;;;;;16.45;11.65;;;;;;;16.98;100.00;96134.19;5083978;28;20063;-51
2021/09/09 04:40:10;;;;;;;13.82;10.90;;;;;;;16.95;100.00;96130.06;5081555;28;20075;-56
2021/09/09 04:42:39;;;;;;;17.67;10.45;;;;;;;16.87;100.00;96134.72;5075829;28;20465;-54
2021/09/09 04:45:09;;;;;;;13.95;10.98;;;;;;;16.97;100.00;96135.22;5088954;28;20534;-53
2021/09/09 04:47:37;;;;;;;13.45;10.43;;;;;;;16.45;100.00;96138.97;5084636;28;20075;-56
2021/09/09 04:50:07;;;;;;;12.32;10.13;;;;;;;16.23;100.00;96143.47;5076896;28;20071;-54
2021/09/09 04:52:37;;;;;;;14.68;11.40;;;;;;;16.84;100.00;96136.75;5080396;28;20075;-54
2021/09/09 04:55:07;;;;;;;14.60;11.57;;;;;;;17.09;100.00;96139.00;5083447;28;20091;-53
2021/09/09 04:57:35;;;;;;;18.50;12.50;;;;;;;16.92;100.00;96134.97;5078355;28;20079;-51
2021/09/09 05:00:05;;;;;;;16.08;12.27;;;;;;;17.16;100.00;96142.53;5077049;28;20060;-51
2021/09/09 05:02:33;;;;;;;13.30;10.90;;;;;;;17.09;100.00;96139.81;5087759;28;20083;-54
2021/09/09 05:05:02;;;;;;;14.65;11.63;;;;;;;17.42;100.00;96133.09;5083360;28;20063;-52
2021/09/09 05:07:31;;;;;;;17.23;12.27;;;;;;;17.52;100.00;96137.03;5077150;28;20084;-54
2021/09/09 05:10:01;;;;;;;16.13;12.52;;;;;;;17.30;100.00;96133.59;5092051;28;20087;-55
2021/09/09 05:12:29;;;;;;;18.80;11.55;;;;;;;16.83;100.00;96134.28;5085079;28;20061;-51
2021/09/09 05:14:57;;;;;;;15.55;11.27;;;;;;;17.41;100.00;96128.75;5082942;28;20075;-54
2021/09/09 05:17:25;;;;;;;14.98;11.80;;;;;;;17.35;100.00;96133.03;5080904;28;20493;-52
2021/09/09 05:19:54;;;;;;;13.70;11.50;;;;;;;17.85;100.00;96136.41;5089588;28;20083;-55
2021/09/09 05:22:22;;;;;;;14.15;11.23;;;;;;;18.06;100.00;96134.66;5084414;28;20282;-52
2021/09/09 05:24:50;;;;;;;16.60;12.40;;;;;;;17.98;100.00;96128.47;5085640;28;20549;-55
2021/09/09 05:27:20;;;;;;;20.08;13.60;;;;;;;18.20;100.00;96129.19;5087723;28;20071;-52
2021/09/09 05:29:48;;;;;;;13.88;11.38;;;;;;;18.18;100.00;96138.41;5090488;28;20075;-51
2021/09/09 05:32:16;;;;;;;13.70;11.52;;;;;;;18.18;100.00;96133.91;5093020;28;20074;-55
2021/09/09 05:34:44;;;;;;;19.70;13.02;;;;;;;18.37;100.00;96136.81;5082205;28;20086;-52
2021/09/09 05:37:13;;;;;;;15.00;12.82;;;;;;;18.49;100.00;96137.88;5088562;28;20075;-53
2021/09/09 05:39:41;;;;;;;14.40;12.20;;;;;;;18.70;100.00;96142.25;5087605;28;20071;-49
2021/09/09 05:42:09;;;;;;;13.98;12.27;;;;;;;18.86;100.00;96135.72;5087633;28;20059;-54
2021/09/09 05:44:39;;;;;;;18.92;12.27;;;;;;;18.70;100.00;96137.72;5085336;28;20072;-51
2021/09/09 05:47:08;;;;;;;11.48;9.93;;;;;;;19.13;100.00;96137.38;5082726;28;20076;-50
2021/09/09 05:49:37;;;;;;;10.80;8.73;;;;;;;18.93;100.00;96136.56;5094461;28;20090;-53
2021/09/09 05:52:06;;;;;;;11.63;10.43;;;;;;;19.38;100.00;96142.09;5087237;28;20083;-56
2021/09/09 05:54:35;;;;;;;10.37;9.33;;;;;;;19.55;100.00;96137.94;5083307;28;20055;-53
2021/09/09 05:57:04;;;;;;;10.98;9.40;;;;;;;19.67;100.00;96138.97;5101675;28;20525;-51
2021/09/09 05:59:32;;;;;;;11.35;9.65;;;;;;;19.87;100.00;96138.91;5085084;28;20066;-53
2021/09/09 06:02:02;;;;;;;11.45;10.25;;;;;;;19.86;100.00;96142.63;5083945;28;20083;-56
2021/09/09 06:04:34;;;;;;;11.85;10.60;;;;;;;19.81;100.00;96145.09;5082700;28;20084;-52
2021/09/09 06:07:02;;;;;;;17.35;11.43;;;;;;;20.24;100.00;96141.88;5089609;28;20173;-51
2021/09/09 06:09:31;;;;;;;14.30;11.75;;;;;;;20.23;100.00;96148.22;5082854;28;20067;-56
2021/09/09 06:11:59;;;;;;;14.85;11.82;;;;;;;20.40;100.00;96148.56;5088158;28;20082;-51
2021/09/09 06:14:29;;;;;;;14.32;12.48;;;;;;;20.47;100.00;96157.38;5095289;28;20064;-52
2021/09/09 06:16:57;;;;;;;16.35;12.15;;;;;;;20.79;100.00;96152.94;5083883;28;20075;-56
2021/09/09 06:19:27;;;;;;;14.50;12.05;;;;;;;20.88;100.00;96144.59;5081145;28;20083;-55
2021/09/09 06:21:57;;;;;;;15.57;12.80;;;;;;;21.09;100.00;96149.59;5090956;28;20088;-56
2021/09/09 06:24:26;;;;;;;18.40;13.27;;;;;;;21.24;100.00;96146.63;5092397;28;20071;-56
2021/09/09 06:26:54;;;;;;;17.40;13.27;;;;;;;21.43;100.00;96144.81;5082005;28;20059;-55
2021/09/09 06:29:23;;;;;;;18.02;13.25;;;;;;;21.52;100.00;96138.13;5094742;28;20084;-55
2021/09/09 06:31:51;;;;;;;15.30;13.02;;;;;;;21.78;100.00;96145.06;5088631;28;20077;-55
2021/09/09 06:34:20;;;;;;;16.00;12.52;;;;;;;21.87;100.00;96146.44;5081609;28;20485;-49
2021/09/09 06:36:49;;;;;;;16.83;13.07;;;;;;;21.52;100.00;96146.19;5082142;28;20494;-51
2021/09/09 06:39:19;;;;;;;15.15;12.52;;;;;;;22.24;100.00;96141.91;5088101;28;20079;-49
2021/09/09 06:41:48;;;;;;;17.45;13.43;;;;;;;22.47;100.00;96145.72;5083794;28;20529;-52
2021/09/09 06:44:16;;;;;;;15.98;13.05;;;;;;;22.41;100.00;96143.97;5090469;28;20102;-52
2021/09/09 06:46:45;;;;;;;14.75;12.35;;;;;;;22.81;100.00;96148.78;5084729;28;20071;-55
2021/09/09 06:49:13;;;;;;;15.43;12.45;;;;;;;22.08;100.00;96153.22;5091021;28;21523;-56
2021/09/09 06:51:42;;;;;;;16.95;11.93;;;;;;;22.08;100.00;96153.22;5086031;28;20082;-52
2021/09/09 06:54:11;;;;;;;14.73;11.52;;;;;;;22.85;100.00;96148.13;5082989;28;20088;-52
2021/09/09 06:56:40;;;;;;;13.68;11.77;;;;;;;22.92;100.00;96154.25;5095179;28;20072;-50
2021/09/09 06:59:08;;;;;;;15.23;10.35;;;;;;;22.86;100.00;96154.31;5092406;28;20067;-54
2021/09/09 07:01:37;;;;;;;17.45;10.48;;;;;;;23.21;100.00;96155.22;5083069;28;20087;-54
2021/09/09 07:04:06;;;;;;;13.77;10.35;;;;;;;23.40;100.00;96163.19;5084369;28;20084;-54
2021/09/09 07:06:34;;;;;;;12.45;10.48;;;;;;;23.14;100.00;96165.28;5087029;28;20105;-52
2021/09/09 07:09:02;;;;;;;13.27;9.82;;;;;;;23.38;100.00;96165.31;5086848;28;20064;-50
2021/09/09 07:11:32;;;;;;;13.43;10.70;;;;;;;23.55;100.00;96163.56;5081020;28;20071;-51
2021/09/09 07:14:01;;;;;;;10.98;9.55;;;;;;;23.69;100.00;96165.00;5093193;28;20072;-51
2021/09/09 07:16:29;;;;;;;12.45;10.27;;;;;;;24.23;100.00;96156.75;5082594;28;20525;-52
2021/09/09 07:18:57;;;;;;;13.63;10.13;;;;;;;24.06;100.00;96167.44;5082106;28;20075;-55
2021/09/09 07:21:26;;;;;;;14.50;10.30;;;;;;;24.36;100.00;96159.16;5082379;28;20071;-54
2021/09/09 07:23:54;;;;;;;16.65;9.88;;;;;;;24.56;100.00;96161.44;5085858;28;20525;-52
2021/09/09 07:26:23;;;;;;;12.50;9.85;;;;;;;24.43;100.00;96171.69;5080082;28;20078;-49
2021/09/09 07:28:52;;;;;;;9.88;8.88;;;;;;;24.07;100.00;96160.97;5079255;28;20065;-57
2021/09/09 07:31:21;;;;;;;10.32;9.05;;;;;;;24.25;100.00;96159.19;5089119;28;20080;-53
2021/09/09 07:33:49;;;;;;;12.43;8.48;;;;;;;24.57;100.00;96167.66;5089437;28;20075;-57
2021/09/09 07:36:18;;;;;;;11.18;8.88;;;;;;;25.16;97.91;96159.34;5081313;28;20064;-55
2021/09/09 07:38:46;;;;;;;11.23;8.88;;;;;;;25.51;93.95;96157.19;5082409;28;20142;-54
2021/09/09 07:41:15;;;;;;;10.18;8.35;;;;;;;25.72;87.44;96157.50;5093194;28;20078;-55
2021/09/09 07:43:43;;;;;;;10.80;8.10;;;;;;;25.18;88.22;96165.28;5082358;28;20078;-57
2021/09/09 07:46:13;;;;;;;9.45;7.75;;;;;;;25.64;85.23;96158.75;5085201;28;20087;-52
2021/09/09 07:48:41;;;;;;;10.63;8.68;;;;;;;26.20;83.19;96164.16;5092776;28;20063;-58
2021/09/09 07:51:11;;;;;;;11.85;7.82;;;;;;;26.62;81.23;96174.41;5081767;28;20060;-53
2021/09/09 07:53:40;;;;;;;12.52;7.95;;;;;;;26.70;77.57;96174.78;5086657;28;20074;-53
2021/09/09 07:56:08;;;;;;;9.48;8.07;;;;;;;25.50;87.80;96179.06;5086572;28;20068;-57
2021/09/09 07:58:36;;;;;;;9.90;7.78;;;;;;;26.72;80.35;96175.34;5086710;28;20526;-52
2021/09/09 08:01:05;;;;;;;9.10;7.55;;;;;;;26.12;76.12;96175.38;5080565;28;20064;-57
2021/09/09 08:03:35;;;;;;;9.23;7.63;;;;;;;25.71;72.01;96174.78;5082294;28;20106;-52
2021/09/09 08:06:03;;;;;;;9.65;7.50;;;;;;;26.51;66.91;96173.47;5096328;28;20075;-52
2021/09/09 08:08:32;;;;;;;9.55;7.70;;;;;;;27.02;62.62;96178.63;5086679;28;20060;-52
2021/09/09 08:11:00;;;;;;;8.60;7.70;;;;;;;26.85;64.28;96178.72;5080488;28;20071;-55
2021/09/09 08:13:29;;;;;;;9.90;7.88;;;;;;;26.99;63.99;96180.75;5087029;28;20087;-55
2021/09/09 08:15:57;;;;;;;10.30;7.43;;;;;;;27.35;61.20;96177.59;5087175;28;20083;-57
2021/09/09 08:18:26;;;;;;;9.85;7.55;;;;;;;27.47;60.71;96188.25;5078812;28;20064;-55
2021/09/09 08:20:55;;;;;;;12.38;8.18;;;;;;;26.86;63.28;96183.06;5078065;28;20075;-57
2021/09/09 08:23:24;;;;;;;11.38;8.10;;;;;;;27.06;63.03;96190.56;5085628;28;20060;-58
2021/09/09 08:25:53;;;;;;;8.75;7.25;;;;;;;26.90;66.75;96184.16;5087070;28;20070;-56
2021/09/09 08:28:22;;;;;;;11.50;7.65;;;;;;;27.07;69.15;96187.59;5085441;28;20071;-56
2021/09/09 08:30:51;;;;;;;13.63;7.55;;;;;;;27.69;60.28;96183.53;5080340;28;20069;-57
2021/09/09 08:33:19;;;;;;;13.30;8.07;;;;;;;27.93;59.80;96189.44;5089485;28;20075;-51
2021/09/09 08:35:48;;;;;;;13.77;7.82;;;;;;;27.67;61.40;96185.72;5084294;28;20626;-56
2021/09/09 08:38:18;;;;;;;9.95;6.93;;;;;;;28.28;55.49;96188.00;5086433;28;20064;-53
2021/09/09 08:40:51;;;;;;;7.82;6.40;;;;;;;27.71;53.89;96196.84;5090651;28;20070;-57
2021/09/09 08:43:19;;;;;;;10.52;7.65;;;;;;;27.69;54.89;96188.97;5093716;28;20079;-56
2021/09/09 08:45:52;;;;;;;12.20;7.40;;;;;;;27.83;56.31;96192.88;5078640;28;20409;-52
2021/09/09 08:48:21;;;;;;;12.38;7.30;;;;;;;27.98;54.57;96192.19;5085206;28;20068;-58
2021/09/09 08:50:49;;;;;;;10.15;6.97;;;;;;;27.19;61.80;96201.03;5083446;28;20814;-55
2021/09/09 08:53:20;;;;;;;11.60;7.60;;;;;;;27.84;57.67;96197.25;5082764;28;20079;-56
2021/09/09 08:55:49;;;;;;;9.48;7.47;;;;;;;27.56;61.88;96192.91;5079093;28;20078;-52
2021/09/09 08:58:19;;;;;;;9.48;7.07;;;;;;;28.67;55.96;96187.66;5096688;28;20552;-53
2021/09/09 09:01:10;;;;;;;10.45;7.22;;;;;;;27.71;52.98;96196.84;5084298;28;21414;-57
2021/09/09 09:03:44;;;;;;;9.75;6.80;;;;;;;28.50;51.41;96196.00;5086629;28;20465;-57
2021/09/09 09:06:29;;;;;;;12.98;7.40;;;;;;;28.38;54.29;96196.19;5079595;28;20060;-57
2021/09/09 09:09:00;;;;;;;9.45;7.18;;;;;;;28.51;52.63;96190.31;5084789;28;20476;-56
2021/09/09 09:11:31;;;;;;;10.20;6.97;;;;;;;28.65;52.32;96189.81;5083924;28;20072;-56
2021/09/09 09:14:00;;;;;;;14.30;7.15;;;;;;;27.77;54.40;96203.94;5078646;28;20064;-54
2021/09/09 09:16:30;;;;;;;12.60;7.13;;;;;;;28.19;56.54;96203.97;5081245;28;20080;-55
2021/09/09 09:19:01;;;;;;;8.65;6.53;;;;;;;27.81;53.05;96205.91;5094816;28;20573;-58
2021/09/09 09:21:33;;;;;;;10.38;7.20;;;;;;;28.45;52.11;96207.63;5076380;28;20079;-57
2021/09/09 09:24:04;;;;;;;12.23;7.20;;;;;;;28.78;53.38;96200.19;5083292;28;20075;-54
2021/09/09 09:26:32;;;;;;;14.25;7.32;;;;;;;28.57;52.93;96200.09;5088287;28;20063;-54
2021/09/09 09:29:01;;;;;;;12.07;7.78;;;;;;;28.74;51.70;96199.91;5089574;28;20476;-56
2021/09/09 09:31:31;;;;;;;8.65;6.57;;;;;;;28.27;52.87;96199.94;5080013;28;20084;-58
2021/09/09 09:34:02;;;;;;;9.93;6.88;;;;;;;28.16;52.68;96193.63;5078852;28;20142;-58
2021/09/09 09:36:32;;;;;;;9.65;6.60;;;;;;;28.20;52.00;96191.22;5094818;28;20072;-57
2021/09/09 09:39:17;;;;;;;13.75;6.72;;;;;;;28.12;52.99;96190.63;5083661;28;20067;-53
2021/09/09 09:41:58;;;;;;;8.77;7.25;;;;;;;27.53;56.98;96198.03;5076695;28;20074;-58
2021/09/09 09:44:28;;;;;;;9.07;7.10;;;;;;;28.08;53.45;96197.66;5073891;28;20060;-57
2021/09/09 09:47:08;;;;;;;8.57;7.00;;;;;;;27.93;55.60;96197.56;5089953;28;20060;-52
2021/09/09 09:49:39;;;;;;;8.30;7.17;;;;;;;28.47;53.89;96196.53;5089999;28;20081;-58
2021/09/09 09:52:08;;;;;;;7.68;6.80;;;;;;;28.88;56.51;96194.78;5084234;28;20510;-55
2021/09/09 09:54:38;;;;;;;9.75;7.38;;;;;;;28.91;55.29;96196.16;5080793;28;20067;-48
2021/09/09 09:57:09;;;;;;;10.77;7.10;;;;;;;28.88;56.43;96194.78;5083472;28;20767;-54
2021/09/09 09:59:38;;;;;;;10.00;7.35;;;;;;;29.32;53.21;96191.63;5079911;28;20064;-57
2021/09/09 10:02:06;;;;;;;8.45;7.28;;;;;;;28.91;51.87;96193.44;5084197;28;20537;-56
2021/09/09 10:04:35;;;;;;;8.82;7.28;;;;;;;29.42;53.22;96194.34;5083757;28;20612;-54
2021/09/09 10:07:04;;;;;;;11.20;7.95;;;;;;;29.46;52.25;96203.59;5090149;28;20071;-50
2021/09/09 10:09:33;;;;;;;11.50;8.10;;;;;;;29.09;51.51;96195.66;5080330;28;20060;-56
2021/09/09 10:12:03;;;;;;;13.40;8.18;;;;;;;29.63;48.17;96194.34;5082322;28;20876;-53
2021/09/09 10:14:31;;;;;;;;;;;;;;;29.33;51.81;96193.25;5086619;28;20157;-53
2021/09/09 10:17:01;;;;;;;9.73;7.75;;;;;;;29.50;52.85;96198.44;5081979;28;19974;-51
2021/09/09 10:19:31;;;;;;;9.02;7.28;;;;;;;29.67;54.20;96200.91;5085233;28;20079;-56
2021/09/09 10:22:06;;;;;;;11.00;7.55;;;;;;;29.70;55.13;96189.50;5093234;28;20463;-56
2021/09/09 10:24:37;;;;;;;8.00;7.20;;;;;;;29.17;54.56;96191.59;5088434;28;20089;-51
2021/09/09 10:27:18;;;;;;;9.05;7.75;;;;;;;29.46;53.96;96187.28;5078717;28;20082;-54
2021/09/09 10:29:48;;;;;;;10.82;7.55;;;;;;;29.53;54.29;96187.03;5078634;28;20102;-55
2021/09/09 10:32:55;;;;;;;9.70;7.97;;;;;;;30.10;53.21;96180.44;5083058;28;20654;-53
2021/09/09 10:35:36;;;;;;;8.45;7.40;;;;;;;29.89;53.03;96176.94;5094022;28;20055;-54
2021/09/09 10:38:35;;;;;;;9.52;7.15;;;;;;;29.66;53.68;96185.66;5085593;28;20066;-55
2021/09/09 10:41:05;;;;;;;8.50;7.60;;;;;;;30.24;52.07;96175.25;5085659;28;20063;-54
2021/09/09 10:43:52;;;;;;;9.02;7.95;;;;;;;30.16;51.99;96171.19;5085192;28;20076;-55
2021/09/09 10:46:21;;;;;;;11.63;7.80;;;;;;;29.50;51.27;96172.06;5076523;28;20092;-57
2021/09/09 10:49:14;;;;;;;9.00;7.15;;;;;;;29.29;52.52;96173.97;5092281;28;20079;-52
2021/09/09 10:52:08;;;;;;;10.10;7.75;;;;;;;28.82;54.42;96174.94;5076060;28;20524;-56
2021/09/09 10:55:09;;;;;;;8.68;7.82;;;;;;;30.19;51.29;96169.84;5078034;28;20071;-54
2021/09/09 10:57:39;;;;;;;9.82;8.00;;;;;;;29.79;51.95;96175.06;5079511;28;20079;-58
2021/09/09 11:00:16;;;;;;;11.10;8.00;;;;;;;29.84;53.27;96168.81;5083515;28;20055;-57
2021/09/09 11:02:45;;;;;;;11.57;8.27;;;;;;;30.06;50.50;96167.66;5091736;28;20071;-57
2021/09/09 11:05:14;;;;;;;;;;;;;;;29.33;51.09;96171.53;5082132;28;20082;-51
2021/09/09 11:07:43;;;;;;;9.15;7.43;;;;;;;30.29;49.44;96166.28;5091138;28;19959;-53
2021/09/09 11:10:12;;;;;;;9.93;7.65;;;;;;;30.35;48.36;96165.16;5091623;28;20079;-54
2021/09/09 11:13:00;;;;;;;7.63;6.82;;;;;;;30.49;49.43;96161.56;5074486;28;21150;-55
2021/09/09 11:15:34;;;;;;;10.10;7.40;;;;;;;30.26;51.84;96159.47;5077486;28;20063;-55
2021/09/09 11:18:04;;;;;;;8.10;6.95;;;;;;;30.48;49.12;96165.38;5076365;28;20071;-54
2021/09/09 11:20:32;;;;;;;8.13;7.25;;;;;;;31.00;47.39;96163.22;5094498;28;20067;-51
2021/09/09 11:23:11;;;;;;;9.55;7.65;;;;;;;30.91;47.43;96163.00;5078406;28;20064;-56
2021/09/09 11:25:39;;;;;;;9.25;7.50;;;;;;;30.71;47.20;96154.94;5091197;28;20087;-53
2021/09/09 11:28:15;;;;;;;8.50;7.60;;;;;;;31.60;45.88;96155.72;5085908;28;20084;-53
2021/09/09 11:30:45;;;;;;;9.65;7.50;;;;;;;30.77;47.36;96159.28;5093046;28;20087;-55